Time;durP1;ratioP1;P1;durP2;ratioP2;P2;SDS_P1;SDS_P2;PMS_P1;PMS_P2;Temp;Humidity;BMP_temperature;BMP_pressure;BME280_temperature;BME280_humidity;BME280_pressure;Samples;Min_cycle;Max_cycle;Signal;HPM_P1;HPM_P2
2021/05/23 00:02:06;;;;;;;1.85;0.95;;;;;;;11.45;64.19;96186.99;1725233;82;21065;-83
2021/05/23 00:04:32;;;;;;;4.22;0.82;;;;;;;11.45;64.22;96194.00;1727235;80;21014;-83
2021/05/23 00:06:58;;;;;;;1.95;1.00;;;;;;;11.48;63.70;96200.11;1742504;80;21033;-82
2021/05/23 00:09:25;;;;;;;1.42;0.80;;;;;;;11.51;63.86;96200.52;1702856;80;21288;-82
2021/05/23 00:11:51;;;;;;;2.62;1.22;;;;;;;11.49;63.81;96197.31;1730114;82;21331;-82
2021/05/23 00:14:20;;;;;;;2.08;1.07;;;;;;;11.50;63.53;96200.72;1754483;80;21078;-82
2021/05/23 00:16:46;;;;;;;1.85;0.70;;;;;;;11.49;63.01;96197.31;1734165;80;20963;-82
2021/05/23 00:19:12;;;;;;;2.65;0.90;;;;;;;11.51;62.70;96194.02;1725024;80;20985;-82
2021/05/23 00:21:37;;;;;;;2.67;0.82;;;;;;;11.52;62.97;96201.33;1726179;80;21037;-82
2021/05/23 00:24:04;;;;;;;2.45;0.78;;;;;;;11.50;62.80;96198.11;1725665;80;21005;-82
2021/05/23 00:26:30;;;;;;;4.92;0.85;;;;;;;11.50;62.87;96194.21;1698733;83;20985;-83
2021/05/23 00:28:56;;;;;;;2.27;0.80;;;;;;;11.49;62.71;96193.91;1724966;82;20942;-82
2021/05/23 00:31:22;;;;;;;3.17;1.00;;;;;;;11.48;62.73;96188.41;1750129;80;21331;-82
2021/05/23 00:33:48;;;;;;;2.83;1.00;;;;;;;11.46;62.34;96185.19;1753765;82;20962;-82
2021/05/23 00:36:13;;;;;;;2.85;0.90;;;;;;;11.47;62.30;96184.20;1752618;80;20930;-82
2021/05/23 00:38:40;;;;;;;0.98;0.57;;;;;;;11.45;62.58;96182.28;1725498;80;20993;-82
2021/05/23 00:41:05;;;;;;;3.05;0.98;;;;;;;11.40;63.00;96184.17;1742759;82;20966;-82
2021/05/23 00:43:31;;;;;;;2.37;1.15;;;;;;;11.34;63.70;96187.02;1728234;80;21014;-83
2021/05/23 00:45:57;;;;;;;3.83;1.55;;;;;;;11.30;63.88;96180.59;1733586;80;21529;-82
2021/05/23 00:48:25;;;;;;;2.27;0.70;;;;;;;11.27;63.21;96171.08;1720139;81;21264;-82
2021/05/23 00:50:51;;;;;;;2.22;0.70;;;;;;;11.26;63.17;96178.08;1732518;81;20947;-82
2021/05/23 00:53:18;;;;;;;1.65;0.62;;;;;;;11.27;63.78;96182.28;1728568;82;21097;-82
2021/05/23 00:55:43;;;;;;;4.28;0.85;;;;;;;11.23;62.59;96184.16;1716798;81;21264;-82
2021/05/23 00:58:09;;;;;;;1.35;0.60;;;;;;;11.22;62.53;96188.53;1724743;81;20919;-82
2021/05/23 01:00:48;;;;;;;2.67;0.70;;;;;;;11.22;63.88;96182.53;1739357;81;21002;-82
2021/05/23 01:03:35;;;;;;;1.02;0.53;;;;;;;11.18;63.87;96179.51;1719716;81;21015;-82
2021/05/23 01:06:05;;;;;;;4.35;0.90;;;;;;;11.14;62.21;96186.09;1719389;81;20938;-82
2021/05/23 01:08:35;;;;;;;1.30;0.75;;;;;;;11.19;63.03;96185.52;1732433;81;21026;-82
2021/05/23 01:11:06;;;;;;;3.50;1.37;;;;;;;11.18;62.69;96187.81;1727697;81;21053;-82
2021/05/23 01:14:00;;;;;;;1.20;0.70;;;;;;;11.16;62.85;96182.80;1735995;81;20968;-82
2021/05/23 01:16:42;;;;;;;2.40;0.70;;;;;;;11.13;63.47;96180.59;1728393;81;21047;-82
2021/05/23 01:19:37;;;;;;;4.22;0.75;;;;;;;11.06;64.05;96184.92;1740154;81;20928;-82
2021/05/23 01:22:11;;;;;;;2.40;0.72;;;;;;;11.00;63.90;96175.28;1717905;81;21267;-82
2021/05/23 01:24:43;;;;;;;1.70;0.70;;;;;;;10.97;64.35;96179.07;1724818;82;20951;-82
2021/05/23 01:27:11;;;;;;;2.42;0.72;;;;;;;10.93;65.70;96179.64;1717225;82;21275;-82
2021/05/23 01:29:39;;;;;;;2.75;0.65;;;;;;;10.89;65.67;96175.30;1711877;81;21766;-82
2021/05/23 01:32:06;;;;;;;2.92;0.85;;;;;;;10.83;64.67;96171.66;1712051;81;21011;-82
2021/05/23 01:34:33;;;;;;;2.22;0.80;;;;;;;10.82;65.85;96178.35;1713231;81;21299;-82
2021/05/23 01:36:59;;;;;;;2.08;0.62;;;;;;;10.79;66.00;96180.03;1669754;84;20955;-82
2021/05/23 01:39:25;;;;;;;3.87;1.02;;;;;;;10.75;65.47;96185.30;1734256;81;21259;-82
2021/05/23 01:41:51;;;;;;;3.05;0.53;;;;;;;10.70;66.02;96178.55;1731101;81;20975;-82
2021/05/23 01:44:17;;;;;;;5.70;0.75;;;;;;;10.64;66.44;96182.70;1711575;81;20981;-82
2021/05/23 01:46:43;;;;;;;3.47;0.80;;;;;;;10.57;67.14;96190.11;1722039;80;21405;-82
2021/05/23 01:49:09;;;;;;;2.83;0.62;;;;;;;10.51;65.74;96192.97;1725629;82;21033;-82
2021/05/23 01:51:35;;;;;;;1.02;0.70;;;;;;;10.49;66.64;96189.75;1725342;82;20966;-82
2021/05/23 01:54:01;;;;;;;3.22;0.88;;;;;;;10.49;65.96;96193.16;1725624;80;21058;-82
2021/05/23 01:56:27;;;;;;;3.50;0.80;;;;;;;10.49;64.87;96189.27;1725697;80;21279;-82
2021/05/23 01:58:52;;;;;;;1.70;0.80;;;;;;;10.55;65.38;96190.30;1726570;80;20954;-82
2021/05/23 02:01:19;;;;;;;6.10;1.25;;;;;;;10.55;66.00;96192.09;1725644;80;21019;-82
2021/05/23 02:03:45;;;;;;;3.67;0.85;;;;;;;10.51;65.92;96184.67;1742940;80;20982;-82
2021/05/23 02:06:10;;;;;;;5.62;1.10;;;;;;;10.51;65.83;96186.47;1728642;80;20973;-82
2021/05/23 02:08:36;;;;;;;3.02;0.80;;;;;;;10.56;65.28;96184.11;1725673;80;20957;-82
2021/05/23 02:11:07;;;;;;;8.30;0.93;;;;;;;10.59;65.27;96186.36;1746294;82;21002;-82
2021/05/23 02:13:34;;;;;;;3.58;0.88;;;;;;;10.59;66.70;96179.87;1728030;80;21069;-83
2021/05/23 02:16:00;;;;;;;2.85;0.90;;;;;;;10.55;65.76;96180.41;1719855;80;20973;-83
2021/05/23 02:18:26;;;;;;;1.75;0.70;;;;;;;10.55;65.36;96189.00;1725634;80;21010;-83
2021/05/23 02:20:52;;;;;;;2.17;1.05;;;;;;;10.57;66.15;96193.52;1725795;80;21037;-83
2021/05/23 02:23:23;;;;;;;2.75;1.37;;;;;;;10.59;65.08;96190.27;1725607;80;21050;-82
2021/05/23 02:25:49;;;;;;;1.47;0.68;;;;;;;10.65;64.72;96198.59;1745385;80;21045;-82
2021/05/23 02:28:15;;;;;;;3.67;1.15;;;;;;;10.75;63.07;96190.00;1725831;80;21018;-82
2021/05/23 02:30:49;;;;;;;2.58;0.70;;;;;;;10.86;64.28;96196.47;1725658;80;21105;-82
2021/05/23 02:33:15;;;;;;;1.77;0.60;;;;;;;10.86;64.97;96198.27;1738058;82;21279;-82
2021/05/23 02:35:46;;;;;;;3.10;0.80;;;;;;;10.83;64.77;96202.85;1734279;82;20939;-81
2021/05/23 02:38:13;;;;;;;0.93;0.60;;;;;;;10.80;64.50;96203.23;1725683;80;20950;-82
2021/05/23 02:40:39;;;;;;;3.67;0.80;;;;;;;10.81;64.56;96212.64;1742309;82;21014;-81
2021/05/23 02:43:06;;;;;;;1.90;0.80;;;;;;;10.81;64.69;96215.23;1707019;82;20975;-83
2021/05/23 02:45:35;;;;;;;2.77;0.70;;;;;;;10.82;63.49;96216.84;1741097;82;21035;-82
2021/05/23 02:48:03;;;;;;;1.55;0.70;;;;;;;10.87;64.19;96223.27;1746915;80;21037;-82
2021/05/23 02:50:31;;;;;;;3.67;0.72;;;;;;;10.86;64.10;96223.77;1752056;80;21267;-82
2021/05/23 02:52:57;;;;;;;1.62;0.70;;;;;;;10.86;65.38;96226.86;1754998;81;20938;-81
2021/05/23 02:55:23;;;;;;;1.95;0.80;;;;;;;10.87;64.64;96229.77;1728498;80;20958;-82
2021/05/23 02:57:49;;;;;;;1.82;0.80;;;;;;;10.88;65.18;96232.67;1725584;82;20971;-81
2021/05/23 03:00:20;;;;;;;2.52;0.70;;;;;;;10.90;64.47;96231.52;1725251;80;20970;-81
2021/05/23 03:02:47;;;;;;;1.00;0.60;;;;;;;11.02;63.51;96231.80;1725184;80;21037;-82
2021/05/23 03:05:15;;;;;;;1.72;0.60;;;;;;;11.12;62.98;96230.98;1726806;82;20947;-82
2021/05/23 03:07:47;;;;;;;2.17;1.17;;;;;;;11.19;63.36;96232.33;1699208;82;21119;-81
2021/05/23 03:10:16;;;;;;;;;;;;;;;11.20;63.77;96229.53;1733892;80;20975;-82
2021/05/23 03:12:42;;;;;;;4.47;0.70;;;;;;;11.22;63.30;96234.05;1739279;80;20113;-82
2021/05/23 03:15:12;;;;;;;4.30;0.88;;;;;;;11.21;64.42;96223.34;1696121;82;21319;-82
2021/05/23 03:17:39;;;;;;;3.47;1.00;;;;;;;11.19;64.36;96228.42;1738423;80;21057;-82
2021/05/23 03:20:07;;;;;;;1.72;0.72;;;;;;;11.16;64.64;96224.91;1724983;80;21370;-82
2021/05/23 03:22:34;;;;;;;3.37;1.00;;;;;;;11.12;65.14;96223.19;1725201;80;20943;-82
2021/05/23 03:25:00;;;;;;;2.22;0.98;;;;;;;11.10;64.18;96222.58;1743765;82;20961;-82
2021/05/23 03:27:26;;;;;;;1.15;0.62;;;;;;;11.09;64.69;96213.97;1731506;80;21342;-81
2021/05/23 03:29:51;;;;;;;1.95;0.78;;;;;;;11.09;64.23;96216.57;1752221;82;20951;-82
2021/05/23 03:32:17;;;;;;;2.60;0.80;;;;;;;11.12;63.89;96214.09;1733971;82;21045;-82
2021/05/23 03:34:43;;;;;;;2.77;0.57;;;;;;;11.16;65.39;96216.61;1725062;81;20938;-82
2021/05/23 03:37:08;;;;;;;1.82;0.80;;;;;;;11.16;64.59;96208.00;1725897;82;20990;-82
2021/05/23 03:39:34;;;;;;;2.67;0.85;;;;;;;11.18;65.15;96214.62;1724997;80;20973;-81
2021/05/23 03:42:00;;;;;;;1.65;0.80;;;;;;;11.17;64.32;96217.41;1725145;82;20961;-82
2021/05/23 03:44:25;;;;;;;4.97;0.78;;;;;;;11.17;64.07;96218.70;1725130;82;21239;-82
2021/05/23 03:46:52;;;;;;;1.95;0.62;;;;;;;11.19;65.05;96214.92;1720728;80;21074;-82
2021/05/23 03:49:18;;;;;;;2.52;0.80;;;;;;;11.21;65.28;96214.73;1712436;81;21270;-82
2021/05/23 03:51:45;;;;;;;1.80;0.60;;;;;;;11.20;65.34;96220.43;1712177;81;20987;-82
2021/05/23 03:54:11;;;;;;;0.90;0.60;;;;;;;11.20;64.23;96224.83;1712742;81;20998;-81
2021/05/23 03:56:37;;;;;;;2.10;0.70;;;;;;;11.24;63.79;96224.28;1728317;81;21022;-81
2021/05/23 03:59:03;;;;;;;2.65;0.95;;;;;;;11.29;63.73;96217.20;1734984;81;21019;-81
2021/05/23 04:01:29;;;;;;;1.42;0.70;;;;;;;11.34;63.52;96214.33;1712103;82;20978;-81
2021/05/23 04:03:58;;;;;;;1.62;0.90;;;;;;;11.36;64.02;96217.54;1732140;81;20966;-81
2021/05/23 04:06:22;;;;;;;3.15;0.80;;;;;;;11.40;64.04;96217.49;1730368;81;20987;-81
2021/05/23 04:08:48;;;;;;;2.83;0.80;;;;;;;11.42;63.97;96216.80;1739624;82;21300;-81
2021/05/23 04:11:18;;;;;;;2.00;0.70;;;;;;;11.46;63.43;96215.91;1740256;81;21369;-81
2021/05/23 04:13:44;;;;;;;3.00;0.70;;;;;;;11.53;62.13;96209.44;1739779;81;21039;-81
2021/05/23 04:16:10;;;;;;;0.90;0.60;;;;;;;11.60;63.52;96211.59;1739981;81;20946;-82
2021/05/23 04:18:35;;;;;;;1.20;0.60;;;;;;;11.63;62.29;96207.30;1715015;81;20947;-81
2021/05/23 04:21:01;;;;;;;1.72;0.68;;;;;;;11.66;62.59;96207.72;1713647;81;20947;-81
2021/05/23 04:23:27;;;;;;;2.80;0.60;;;;;;;11.67;62.67;96217.62;1714497;82;20935;-82
2021/05/23 04:25:52;;;;;;;1.82;0.60;;;;;;;11.70;62.20;96222.44;1712671;81;21347;-82
2021/05/23 04:28:18;;;;;;;2.05;0.68;;;;;;;11.73;62.66;96224.69;1712203;81;20967;-82
2021/05/23 04:30:44;;;;;;;1.92;0.70;;;;;;;11.73;62.98;96215.08;1711599;81;21006;-82
2021/05/23 04:33:10;;;;;;;1.80;0.65;;;;;;;11.73;63.26;96215.08;1693004;82;20951;-82
2021/05/23 04:35:36;;;;;;;2.12;0.68;;;;;;;11.73;63.67;96216.88;1727545;81;20982;-82
2021/05/23 04:38:03;;;;;;;2.42;0.70;;;;;;;11.70;63.95;96219.84;1733616;81;20946;-81
2021/05/23 04:40:29;;;;;;;1.98;0.47;;;;;;;11.65;63.36;96214.41;1740534;82;20995;-82
2021/05/23 04:42:55;;;;;;;1.05;0.57;;;;;;;11.61;64.83;96213.20;1740609;82;21011;-82
2021/05/23 04:45:21;;;;;;;2.95;0.98;;;;;;;11.57;65.23;96214.59;1713585;81;21307;-81
2021/05/23 04:47:47;;;;;;;2.35;0.53;;;;;;;11.57;64.84;96217.99;1700958;83;21021;-82
2021/05/23 04:50:12;;;;;;;1.47;0.62;;;;;;;11.58;63.92;96218.80;1732796;80;21072;-82
2021/05/23 04:52:38;;;;;;;1.32;0.50;;;;;;;11.61;64.38;96215.80;1732729;80;20985;-82
2021/05/23 04:55:05;;;;;;;5.78;1.52;;;;;;;11.65;63.98;96219.13;1749044;81;20955;-82
2021/05/23 04:57:31;;;;;;;1.55;0.50;;;;;;;11.71;64.01;96216.23;1737405;80;20954;-82
2021/05/23 04:59:56;;;;;;;1.05;0.50;;;;;;;11.75;62.74;96223.19;1733424;80;20974;-81
2021/05/23 05:02:22;;;;;;;1.85;0.70;;;;;;;11.80;62.65;96228.14;1732633;81;21301;-82
2021/05/23 05:04:48;;;;;;;1.80;0.60;;;;;;;11.86;61.77;96223.95;1732908;80;20966;-81
2021/05/23 05:07:14;;;;;;;0.70;0.57;;;;;;;11.92;61.59;96226.61;1750216;81;20985;-82
2021/05/23 05:09:40;;;;;;;3.33;1.75;;;;;;;11.98;62.08;96226.32;1736186;80;21020;-82
2021/05/23 05:12:06;;;;;;;2.17;0.60;;;;;;;12.00;62.16;96229.53;1731764;80;21057;-82
2021/05/23 05:14:33;;;;;;;1.47;0.70;;;;;;;12.01;62.03;96228.03;1731819;80;20966;-82
2021/05/23 05:16:58;;;;;;;1.07;0.57;;;;;;;12.05;61.84;96230.27;1745691;80;20991;-81
2021/05/23 05:19:24;;;;;;;4.17;0.60;;;;;;;12.08;61.45;96230.69;1745705;81;21346;-81
2021/05/23 05:21:50;;;;;;;2.10;0.68;;;;;;;12.12;60.72;96229.29;1740855;81;21000;-82
2021/05/23 05:24:16;;;;;;;1.90;0.60;;;;;;;12.17;61.14;96226.09;1752955;80;21033;-82
2021/05/23 05:26:42;;;;;;;0.90;0.60;;;;;;;12.20;60.98;96225.70;1751128;80;21077;-82
2021/05/23 05:29:08;;;;;;;0.93;0.53;;;;;;;12.24;60.88;96229.04;1756519;80;21310;-82
2021/05/23 05:31:33;;;;;;;2.15;0.90;;;;;;;12.27;60.65;96226.03;1747373;80;21097;-82
2021/05/23 05:33:59;;;;;;;1.42;0.65;;;;;;;12.33;61.25;96226.55;1739404;80;21057;-81
2021/05/23 05:36:25;;;;;;;2.33;0.50;;;;;;;12.38;60.94;96235.59;1741138;80;21033;-82
2021/05/23 05:38:51;;;;;;;3.08;0.50;;;;;;;12.44;60.18;96231.70;1744060;80;21278;-82
2021/05/23 05:41:17;;;;;;;1.70;0.57;;;;;;;12.52;60.04;96227.59;1707214;80;20942;-82
2021/05/23 05:43:43;;;;;;;1.27;0.42;;;;;;;12.59;60.24;96234.94;1745125;81;20962;-81
2021/05/23 05:46:09;;;;;;;2.75;0.65;;;;;;;12.66;59.98;96239.35;1741900;80;20965;-81
2021/05/23 05:48:35;;;;;;;2.85;1.00;;;;;;;12.74;60.10;96241.78;1727474;80;21014;-81
2021/05/23 05:51:01;;;;;;;1.17;0.55;;;;;;;12.83;60.12;96234.06;1738241;82;20978;-81
2021/05/23 05:53:27;;;;;;;0.85;0.55;;;;;;;12.92;59.98;96232.38;1732642;80;21013;-82
2021/05/23 05:55:53;;;;;;;1.35;0.47;;;;;;;13.01;59.51;96244.70;1733644;80;20962;-81
2021/05/23 05:58:19;;;;;;;2.45;1.10;;;;;;;13.07;59.41;96241.81;1754079;80;21315;-81
2021/05/23 06:00:44;;;;;;;2.62;1.02;;;;;;;13.11;59.66;96246.92;1754081;80;20962;-82
2021/05/23 06:03:10;;;;;;;0.80;0.57;;;;;;;13.13;59.91;96245.72;1742130;82;21041;-81
2021/05/23 06:05:36;;;;;;;1.37;0.55;;;;;;;13.15;58.91;96245.02;1725221;80;20954;-81
2021/05/23 06:08:01;;;;;;;1.32;0.68;;;;;;;13.19;59.30;96241.55;1661245;85;20985;-82
2021/05/23 06:10:28;;;;;;;1.80;0.60;;;;;;;13.20;59.72;96243.96;1730543;80;21101;-82
2021/05/23 06:12:54;;;;;;;2.67;0.72;;;;;;;13.20;59.64;96240.05;1725200;82;21334;-82
2021/05/23 06:15:20;;;;;;;1.25;0.50;;;;;;;13.21;58.95;96242.16;1725466;80;21000;-82
2021/05/23 06:17:46;;;;;;;5.62;4.12;;;;;;;13.21;59.22;96242.95;1726353;80;21041;-82
2021/05/23 06:20:12;;;;;;;2.50;2.30;;;;;;;13.22;59.10;96241.15;1698951;82;20955;-82
2021/05/23 06:22:38;;;;;;;4.33;1.72;;;;;;;13.26;58.91;96246.26;1728223;82;20974;-82
2021/05/23 06:25:05;;;;;;;1.37;0.70;;;;;;;13.33;59.37;96246.24;1725853;80;21048;-82
2021/05/23 06:27:31;;;;;;;1.67;0.82;;;;;;;13.38;59.08;96247.77;1747409;80;20930;-82
2021/05/23 06:29:57;;;;;;;1.00;0.80;;;;;;;13.44;58.07;96250.86;1744767;80;21310;-81
2021/05/23 06:32:23;;;;;;;0.98;0.60;;;;;;;13.53;58.47;96248.35;1743921;80;21117;-81
2021/05/23 06:34:48;;;;;;;1.57;0.78;;;;;;;13.61;58.33;96251.23;1727227;80;22151;-81
2021/05/23 06:37:14;;;;;;;1.07;0.95;;;;;;;13.69;58.31;96249.23;1725765;80;21049;-81
2021/05/23 06:39:40;;;;;;;2.55;1.00;;;;;;;13.76;58.08;96251.81;1725030;80;21025;-82
2021/05/23 06:42:06;;;;;;;1.55;0.75;;;;;;;13.84;57.73;96251.61;1726234;82;21029;-81
2021/05/23 06:44:32;;;;;;;2.95;2.52;;;;;;;13.97;57.83;96245.52;1742263;80;21041;-82
2021/05/23 06:46:57;;;;;;;9.93;8.93;;;;;;;14.07;58.09;96253.73;1730854;80;20974;-83
2021/05/23 06:49:23;;;;;;;12.15;11.03;;;;;;;14.15;57.77;96252.19;1725779;80;20961;-82
2021/05/23 06:51:49;;;;;;;8.68;7.92;;;;;;;14.23;57.22;96242.82;1743517;80;21054;-82
2021/05/23 06:54:15;;;;;;;11.90;10.82;;;;;;;14.30;57.67;96243.58;1752738;80;21096;-82
2021/05/23 06:56:40;;;;;;;2.50;2.30;;;;;;;14.34;58.08;96242.17;1740076;80;21065;-82
2021/05/23 06:59:07;;;;;;;2.30;0.90;;;;;;;14.43;57.25;96241.41;1744852;82;21109;-83
2021/05/23 07:01:33;;;;;;;1.70;0.60;;;;;;;14.52;56.79;96242.02;1752185;80;21319;-82
2021/05/23 07:03:59;;;;;;;3.12;0.75;;;;;;;14.65;56.67;96248.49;1750012;82;20934;-83
2021/05/23 07:06:25;;;;;;;1.45;0.62;;;;;;;14.76;56.66;96252.23;1751914;80;20986;-82
2021/05/23 07:08:51;;;;;;;2.08;0.55;;;;;;;14.88;56.58;96247.94;1731123;80;20954;-82
2021/05/23 07:11:17;;;;;;;4.33;3.70;;;;;;;15.03;56.37;96249.74;1727410;82;20967;-82
2021/05/23 07:13:43;;;;;;;1.90;0.95;;;;;;;15.15;56.69;96253.28;1730750;82;21052;-82
2021/05/23 07:16:09;;;;;;;1.90;0.80;;;;;;;15.28;55.50;96254.45;1754457;80;21469;-82
2021/05/23 07:18:34;;;;;;;3.12;0.70;;;;;;;15.40;55.42;96251.95;1752815;80;20962;-82
2021/05/23 07:21:00;;;;;;;3.05;0.72;;;;;;;15.50;55.41;96255.41;1742804;80;20966;-82
2021/05/23 07:23:27;;;;;;;0.93;0.50;;;;;;;15.63;55.98;96257.94;1725385;80;21285;-82
2021/05/23 07:25:53;;;;;;;1.92;1.00;;;;;;;15.71;54.13;96261.58;1732203;80;20934;-82
2021/05/23 07:28:18;;;;;;;1.92;0.70;;;;;;;15.71;53.83;96264.19;1740962;80;20993;-82
2021/05/23 07:30:44;;;;;;;1.80;0.53;;;;;;;15.80;54.07;96262.91;1726569;80;21298;-82
2021/05/23 07:33:10;;;;;;;1.45;0.70;;;;;;;15.88;53.69;96257.88;1725679;80;21069;-82
2021/05/23 07:35:36;;;;;;;1.40;0.40;;;;;;;15.96;54.07;96260.73;1725712;80;20947;-82
2021/05/23 07:38:03;;;;;;;2.37;0.78;;;;;;;16.05;52.52;96258.89;1745856;80;21336;-82
2021/05/23 07:40:28;;;;;;;1.52;0.80;;;;;;;16.12;52.97;96264.08;1727055;82;20970;-82
2021/05/23 07:42:54;;;;;;;2.22;0.50;;;;;;;16.19;51.78;96260.35;1745449;82;21022;-82
2021/05/23 07:45:20;;;;;;;1.72;0.45;;;;;;;16.28;52.06;96256.14;1726572;80;20970;-82
2021/05/23 07:47:46;;;;;;;2.30;0.60;;;;;;;16.38;51.60;96249.84;1720795;80;20991;-82
2021/05/23 07:50:13;;;;;;;1.65;0.40;;;;;;;16.47;51.14;96250.64;1711488;81;20994;-82
2021/05/23 07:52:39;;;;;;;2.25;0.60;;;;;;;16.62;49.83;96239.75;1712786;81;20959;-83
2021/05/23 07:55:05;;;;;;;2.47;0.60;;;;;;;16.77;51.19;96245.94;1714951;82;20978;-83
2021/05/23 07:57:31;;;;;;;1.05;0.60;;;;;;;16.95;51.28;96243.25;1719752;81;21244;-83
2021/05/23 07:59:57;;;;;;;1.87;0.50;;;;;;;17.18;50.85;96243.79;1713665;81;20939;-83
2021/05/23 08:02:22;;;;;;;2.65;0.55;;;;;;;17.35;49.86;96242.09;1729630;82;21010;-83
2021/05/23 08:04:48;;;;;;;1.42;0.75;;;;;;;17.45;49.08;96244.17;1719103;81;21018;-83
2021/05/23 08:07:14;;;;;;;1.15;0.53;;;;;;;17.57;49.18;96241.52;1741041;82;21335;-83
2021/05/23 08:09:40;;;;;;;1.30;0.50;;;;;;;17.74;49.57;96243.80;1739010;81;20999;-83
2021/05/23 08:12:06;;;;;;;3.02;0.60;;;;;;;17.82;47.72;96243.44;1732389;81;21355;-83
2021/05/23 08:14:32;;;;;;;1.22;0.60;;;;;;;17.90;47.33;96240.98;1728321;81;20975;-82
2021/05/23 08:16:58;;;;;;;1.75;0.60;;;;;;;17.85;46.76;96240.34;1717388;81;21283;-83
2021/05/23 08:19:24;;;;;;;3.92;1.30;;;;;;;17.79;47.07;96241.79;1711615;81;21188;-83
2021/05/23 08:21:50;;;;;;;3.02;1.10;;;;;;;17.73;47.46;96244.00;1714289;81;20963;-82
2021/05/23 08:24:16;;;;;;;3.37;1.05;;;;;;;17.66;47.55;96238.33;1711594;81;21063;-82
2021/05/23 08:26:42;;;;;;;3.12;0.90;;;;;;;17.64;47.34;96243.02;1711581;81;20950;-83
2021/05/23 08:29:07;;;;;;;1.70;0.70;;;;;;;17.62;47.19;96246.39;1731959;81;20959;-82
2021/05/23 08:31:34;;;;;;;2.47;0.65;;;;;;;17.73;47.68;96253.20;1711591;82;21046;-83
2021/05/23 08:34:00;;;;;;;2.37;0.72;;;;;;;17.78;47.00;96253.33;1712493;81;21336;-82
2021/05/23 08:36:25;;;;;;;1.27;0.60;;;;;;;17.78;46.49;96258.59;1690824;83;21007;-83
2021/05/23 08:38:51;;;;;;;3.08;0.80;;;;;;;17.75;47.40;96258.54;1724842;81;20939;-82
2021/05/23 08:41:18;;;;;;;1.87;0.75;;;;;;;17.72;48.01;96261.59;1720158;81;20943;-83
2021/05/23 08:43:45;;;;;;;2.50;0.60;;;;;;;17.68;47.24;96265.72;1718830;81;20994;-83
2021/05/23 08:46:11;;;;;;;1.65;0.57;;;;;;;17.58;46.41;96265.48;1741094;81;20975;-83
2021/05/23 08:48:37;;;;;;;0.82;0.50;;;;;;;17.50;46.33;96259.23;1728880;81;21002;-83
2021/05/23 08:51:03;;;;;;;1.05;0.50;;;;;;;17.47;45.63;96263.12;1726188;80;21271;-83
2021/05/23 08:53:29;;;;;;;1.35;0.37;;;;;;;17.40;44.54;96267.16;1725694;80;20974;-83
2021/05/23 08:55:55;;;;;;;2.22;0.40;;;;;;;17.34;44.69;96266.76;1725775;80;20951;-83
2021/05/23 08:58:26;;;;;;;1.77;0.40;;;;;;;17.29;44.63;96265.34;1726017;82;21247;-83
2021/05/23 09:00:52;;;;;;;1.92;0.50;;;;;;;17.24;45.17;96274.38;1725371;80;20966;-83
2021/05/23 09:03:19;;;;;;;7.55;4.90;;;;;;;17.19;44.60;96277.41;1750898;80;21374;-83
2021/05/23 09:05:53;;;;;;;39.05;27.62;;;;;;;17.18;45.13;96270.05;1742105;82;20960;-83
2021/05/23 09:08:21;;;;;;;7.92;4.78;;;;;;;17.22;46.76;96271.19;1747344;80;20962;-82
2021/05/23 09:10:49;;;;;;;5.58;3.05;;;;;;;17.23;45.91;96270.16;1737855;82;20982;-83
2021/05/23 09:13:35;;;;;;;5.22;4.05;;;;;;;17.26;46.76;96274.98;1750652;80;20998;-83
2021/05/23 09:16:09;;;;;;;3.33;1.42;;;;;;;17.29;46.27;96273.21;1751775;80;20950;-83
2021/05/23 09:18:46;;;;;;;1.45;1.07;;;;;;;17.33;45.97;96278.80;1727318;80;21071;-82
2021/05/23 09:21:16;;;;;;;4.47;2.83;;;;;;;17.32;46.41;96277.20;1725860;80;21009;-83
2021/05/23 09:23:55;;;;;;;3.30;2.35;;;;;;;17.28;45.44;96276.87;1726013;80;21041;-83
2021/05/23 09:26:28;;;;;;;2.52;1.62;;;;;;;17.24;46.63;96277.01;1736009;82;20959;-82
2021/05/23 09:28:54;;;;;;;2.27;2.02;;;;;;;17.31;47.43;96284.29;1732182;80;21980;-83
2021/05/23 09:31:23;;;;;;;3.10;0.90;;;;;;;17.34;47.23;96279.89;1725578;82;21073;-83
2021/05/23 09:33:52;;;;;;;2.50;1.27;;;;;;;17.40;46.85;96283.42;1726149;82;21029;-82
2021/05/23 09:36:19;;;;;;;1.17;0.70;;;;;;;17.45;47.33;96278.83;1725532;80;21017;-82
2021/05/23 09:39:01;;;;;;;1.92;1.10;;;;;;;17.52;47.82;96282.14;1725092;80;21302;-83
2021/05/23 09:41:30;;;;;;;2.02;0.95;;;;;;;17.55;47.59;96287.73;1745562;80;20961;-83
2021/05/23 09:44:14;;;;;;;3.40;1.40;;;;;;;17.67;47.20;96289.05;1738880;82;21080;-83
2021/05/23 09:46:56;;;;;;;1.50;0.98;;;;;;;17.80;47.31;96286.23;1749522;80;20985;-83
2021/05/23 09:49:23;;;;;;;1.52;0.70;;;;;;;17.90;47.11;96287.78;1715179;81;21086;-83
2021/05/23 09:51:59;;;;;;;0.60;0.25;;;;;;;17.96;46.01;96288.17;1712978;81;21271;-83
2021/05/23 09:54:27;;;;;;;1.05;0.47;;;;;;;17.93;46.46;96292.58;1713061;81;21387;-83
2021/05/23 09:56:53;;;;;;;2.17;0.93;;;;;;;17.96;46.37;96288.17;1712274;81;20978;-82
2021/05/23 09:59:25;;;;;;;1.55;0.78;;;;;;;18.08;46.39;96300.00;1730898;81;21284;-83
2021/05/23 10:01:51;;;;;;;0.82;0.50;;;;;;;18.15;46.44;96298.55;1728842;82;20967;-83
2021/05/23 10:04:22;;;;;;;2.55;0.50;;;;;;;18.25;45.09;96291.67;1734552;81;21082;-84
2021/05/23 10:07:03;;;;;;;1.50;0.55;;;;;;;18.24;44.84;96301.12;1661968;84;20966;-83
2021/05/23 10:09:29;;;;;;;1.65;0.60;;;;;;;18.17;46.30;96303.85;1680160;83;21351;-83
2021/05/23 10:11:56;;;;;;;1.75;0.80;;;;;;;18.15;45.86;96304.60;1696839;83;21311;-82
2021/05/23 10:14:22;;;;;;;3.17;0.60;;;;;;;18.10;46.79;96300.56;1677400;83;20985;-83
2021/05/23 10:16:51;;;;;;;5.20;0.90;;;;;;;18.06;47.60;96305.17;1712659;81;21036;-83
2021/05/23 10:19:21;;;;;;;0.95;0.50;;;;;;;17.95;46.99;96311.55;1710871;81;21035;-83
2021/05/23 10:21:48;;;;;;;1.30;1.05;;;;;;;17.80;46.65;96309.89;1712648;81;20926;-83
2021/05/23 10:24:21;;;;;;;1.62;0.50;;;;;;;17.65;46.79;96312.94;1713923;81;20965;-83
2021/05/23 10:26:46;;;;;;;3.27;0.93;;;;;;;17.51;47.34;96310.74;1727511;81;20938;-83
2021/05/23 10:29:12;;;;;;;1.27;0.80;;;;;;;17.39;47.48;96318.59;1738804;81;21693;-83
2021/05/23 10:31:38;;;;;;;2.67;0.75;;;;;;;17.24;47.70;96322.16;1728859;81;21382;-83
2021/05/23 10:34:04;;;;;;;1.75;1.07;;;;;;;17.09;48.75;96324.72;1731326;82;21014;-83
2021/05/23 10:36:33;;;;;;;1.60;1.00;;;;;;;16.84;48.69;96329.80;1732114;81;20966;-83
2021/05/23 10:39:01;;;;;;;2.37;1.35;;;;;;;16.51;49.21;96337.03;1711703;82;20963;-83
2021/05/23 10:41:27;;;;;;;2.22;1.60;;;;;;;16.26;48.69;96347.28;1711779;81;20984;-83
2021/05/23 10:44:02;;;;;;;3.02;2.67;;;;;;;16.00;47.89;96340.00;1721409;82;21291;-83
2021/05/23 10:46:30;;;;;;;6.87;6.37;;;;;;;15.81;47.50;96353.58;1720504;81;20954;-83
2021/05/23 10:49:00;;;;;;;2.65;1.47;;;;;;;15.59;48.02;96364.92;1739941;81;21010;-82
2021/05/23 10:51:27;;;;;;;2.10;1.40;;;;;;;15.41;49.49;96375.30;1742512;82;21366;-83
2021/05/23 10:53:54;;;;;;;6.00;3.67;;;;;;;15.17;50.87;96383.41;1748495;82;21018;-82
2021/05/23 10:56:29;;;;;;;4.60;1.55;;;;;;;14.95;52.18;96395.19;1728376;80;21361;-82
2021/05/23 10:59:00;;;;;;;3.83;2.62;;;;;;;14.60;53.59;96407.30;1699850;82;20978;-82
2021/05/23 11:01:49;;;;;;;7.33;4.12;;;;;;;14.25;56.57;96418.52;1734374;80;21243;-81
2021/05/23 11:04:17;;;;;;;7.08;3.70;;;;;;;13.97;57.83;96437.52;1732171;80;21014;-81
2021/05/23 11:06:45;;;;;;;11.48;5.83;;;;;;;13.60;58.35;96439.71;1745822;82;20994;-81
2021/05/23 11:09:23;;;;;;;5.03;1.60;;;;;;;13.39;60.29;96441.99;1742360;80;20946;-82
2021/05/23 11:11:49;;;;;;;2.52;0.90;;;;;;;13.17;61.62;96449.61;1726214;80;20935;-82
2021/05/23 11:14:24;;;;;;;5.33;1.67;;;;;;;13.01;62.33;96475.53;1733562;82;21057;-82
2021/05/23 11:16:54;;;;;;;3.08;1.32;;;;;;;12.76;62.52;96484.86;1747035;80;21022;-82
2021/05/23 11:19:21;;;;;;;2.72;1.25;;;;;;;12.52;63.21;96505.66;1738617;82;21339;-82
2021/05/23 11:21:50;;;;;;;2.30;1.20;;;;;;;12.34;63.79;96510.05;1751907;82;20958;-82
2021/05/23 11:24:16;;;;;;;2.72;1.00;;;;;;;12.12;64.00;96513.69;1734617;82;20990;-82
2021/05/23 11:26:42;;;;;;;2.77;1.35;;;;;;;11.98;63.63;96501.84;1753842;82;20914;-82
2021/05/23 11:29:08;;;;;;;2.33;0.90;;;;;;;11.91;64.47;96507.50;1753490;80;20997;-82
2021/05/23 11:31:38;;;;;;;2.35;0.80;;;;;;;11.83;65.29;96506.31;1740388;80;21069;-82
2021/05/23 11:34:06;;;;;;;3.83;0.82;;;;;;;11.79;66.15;96501.17;1725339;80;21442;-82
2021/05/23 11:36:37;;;;;;;2.15;0.62;;;;;;;11.78;66.95;96493.52;1725041;80;21370;-84